sensor_id;sensor_type;location;lat;lon;timestamp;P1;durP1;ratioP1;P2;durP2;ratioP2
30149;SDS011;16962;48.646;9.026;2022-09-09T00:36:35;4.97;;;1.20;;
30149;SDS011;16962;48.646;9.026;2022-09-09T00:39:46;3.30;;;1.10;;
30149;SDS011;16962;48.646;9.026;2022-09-09T01:26:37;4.57;;;1.10;;
30149;SDS011;16962;48.646;9.026;2022-09-09T01:42:04;5.55;;;1.40;;
30149;SDS011;16962;48.646;9.026;2022-09-09T01:45:13;4.57;;;1.30;;
30149;SDS011;16962;48.646;9.026;2022-09-09T01:48:24;5.53;;;1.27;;
30149;SDS011;16962;48.646;9.026;2022-09-09T02:03:27;3.75;;;1.05;;
30149;SDS011;16962;48.646;9.026;2022-09-09T02:07:21;4.45;;;1.35;;
30149;SDS011;16962;48.646;9.026;2022-09-09T02:48:30;5.13;;;1.27;;
30149;SDS011;16962;48.646;9.026;2022-09-09T03:07:37;7.57;;;3.05;;
30149;SDS011;16962;48.646;9.026;2022-09-09T03:27:41;6.88;;;3.33;;
30149;SDS011;16962;48.646;9.026;2022-09-09T03:35:35;7.50;;;2.65;;
30149;SDS011;16962;48.646;9.026;2022-09-09T03:39:06;4.10;;;2.53;;
30149;SDS011;16962;48.646;9.026;2022-09-09T03:53:58;7.50;;;2.42;;
30149;SDS011;16962;48.646;9.026;2022-09-09T04:26:13;5.53;;;1.70;;
30149;SDS011;16962;48.646;9.026;2022-09-09T04:29:00;7.95;;;2.40;;
30149;SDS011;16962;48.646;9.026;2022-09-09T04:35:54;7.75;;;2.10;;
30149;SDS011;16962;48.646;9.026;2022-09-09T04:38:42;6.35;;;1.60;;
30149;SDS011;16962;48.646;9.026;2022-09-09T04:45:15;3.95;;;1.45;;
30149;SDS011;16962;48.646;9.026;2022-09-09T04:52:09;6.50;;;1.70;;
30149;SDS011;16962;48.646;9.026;2022-09-09T04:55:08;3.45;;;1.23;;
30149;SDS011;16962;48.646;9.026;2022-09-09T05:01:22;4.05;;;1.35;;
30149;SDS011;16962;48.646;9.026;2022-09-09T05:14:57;13.57;;;5.13;;
30149;SDS011;16962;48.646;9.026;2022-09-09T05:17:44;13.70;;;5.22;;
30149;SDS011;16962;48.646;9.026;2022-09-09T05:20:31;11.45;;;4.07;;
30149;SDS011;16962;48.646;9.026;2022-09-09T05:23:18;9.45;;;3.58;;
30149;SDS011;16962;48.646;9.026;2022-09-09T05:26:06;14.32;;;3.83;;
30149;SDS011;16962;48.646;9.026;2022-09-09T05:28:55;9.88;;;4.45;;
30149;SDS011;16962;48.646;9.026;2022-09-09T05:31:44;11.13;;;3.53;;
30149;SDS011;16962;48.646;9.026;2022-09-09T05:34:35;6.47;;;2.35;;
30149;SDS011;16962;48.646;9.026;2022-09-09T05:37:24;7.40;;;2.00;;
30149;SDS011;16962;48.646;9.026;2022-09-09T05:40:11;10.10;;;2.05;;
30149;SDS011;16962;48.646;9.026;2022-09-09T05:42:59;7.03;;;2.03;;
30149;SDS011;16962;48.646;9.026;2022-09-09T05:46:00;8.48;;;2.20;;
30149;SDS011;16962;48.646;9.026;2022-09-09T05:48:49;4.53;;;1.95;;
30149;SDS011;16962;48.646;9.026;2022-09-09T05:51:38;3.67;;;1.25;;
30149;SDS011;16962;48.646;9.026;2022-09-09T05:54:27;6.00;;;1.70;;
30149;SDS011;16962;48.646;9.026;2022-09-09T05:57:14;3.95;;;1.50;;
30149;SDS011;16962;48.646;9.026;2022-09-09T06:00:06;5.43;;;1.80;;
30149;SDS011;16962;48.646;9.026;2022-09-09T06:07:00;3.58;;;1.35;;
30149;SDS011;16962;48.646;9.026;2022-09-09T06:09:50;4.07;;;1.85;;
30149;SDS011;16962;48.646;9.026;2022-09-09T06:12:38;4.43;;;1.60;;
30149;SDS011;16962;48.646;9.026;2022-09-09T06:15:25;4.47;;;1.73;;
30149;SDS011;16962;48.646;9.026;2022-09-09T06:18:13;4.95;;;1.25;;
30149;SDS011;16962;48.646;9.026;2022-09-09T06:21:02;1.88;;;1.30;;
30149;SDS011;16962;48.646;9.026;2022-09-09T06:24:07;3.78;;;1.50;;
30149;SDS011;16962;48.646;9.026;2022-09-09T06:27:08;4.85;;;1.67;;
30149;SDS011;16962;48.646;9.026;2022-09-09T06:29:59;4.50;;;1.52;;
30149;SDS011;16962;48.646;9.026;2022-09-09T06:32:55;3.17;;;1.40;;
30149;SDS011;16962;48.646;9.026;2022-09-09T06:36:01;6.38;;;1.38;;
30149;SDS011;16962;48.646;9.026;2022-09-09T06:38:53;5.65;;;1.55;;
30149;SDS011;16962;48.646;9.026;2022-09-09T07:02:47;6.40;;;1.77;;
30149;SDS011;16962;48.646;9.026;2022-09-09T07:06:06;6.90;;;1.67;;
30149;SDS011;16962;48.646;9.026;2022-09-09T07:09:31;5.88;;;1.60;;
30149;SDS011;16962;48.646;9.026;2022-09-09T07:13:03;3.35;;;1.30;;
30149;SDS011;16962;48.646;9.026;2022-09-09T07:16:34;4.28;;;1.40;;
30149;SDS011;16962;48.646;9.026;2022-09-09T07:24:50;10.55;;;1.48;;
30149;SDS011;16962;48.646;9.026;2022-09-09T07:36:01;2.90;;;1.20;;
30149;SDS011;16962;48.646;9.026;2022-09-09T07:47:40;6.40;;;1.48;;
30149;SDS011;16962;48.646;9.026;2022-09-09T07:55:39;3.80;;;1.92;;
30149;SDS011;16962;48.646;9.026;2022-09-09T07:59:09;8.10;;;1.23;;
30149;SDS011;16962;48.646;9.026;2022-09-09T08:03:16;3.50;;;1.20;;
30149;SDS011;16962;48.646;9.026;2022-09-09T08:07:17;8.57;;;1.10;;
30149;SDS011;16962;48.646;9.026;2022-09-09T08:10:30;10.82;;;1.60;;
30149;SDS011;16962;48.646;9.026;2022-09-09T08:13:43;5.90;;;1.17;;
30149;SDS011;16962;48.646;9.026;2022-09-09T08:20:12;4.47;;;1.27;;
30149;SDS011;16962;48.646;9.026;2022-09-09T08:23:15;5.88;;;1.10;;
30149;SDS011;16962;48.646;9.026;2022-09-09T08:26:19;2.85;;;1.10;;
30149;SDS011;16962;48.646;9.026;2022-09-09T08:29:12;3.13;;;0.93;;
30149;SDS011;16962;48.646;9.026;2022-09-09T08:32:08;5.82;;;1.38;;
30149;SDS011;16962;48.646;9.026;2022-09-09T08:34:57;5.22;;;1.33;;
30149;SDS011;16962;48.646;9.026;2022-09-09T08:37:48;4.50;;;1.45;;
30149;SDS011;16962;48.646;9.026;2022-09-09T08:50:37;6.88;;;1.20;;
30149;SDS011;16962;48.646;9.026;2022-09-09T08:53:43;4.65;;;1.38;;
30149;SDS011;16962;48.646;9.026;2022-09-09T08:57:27;5.45;;;1.10;;
30149;SDS011;16962;48.646;9.026;2022-09-09T09:46:24;3.90;;;1.00;;
30149;SDS011;16962;48.646;9.026;2022-09-09T10:01:37;6.70;;;1.02;;
30149;SDS011;16962;48.646;9.026;2022-09-09T10:04:43;5.30;;;1.00;;
30149;SDS011;16962;48.646;9.026;2022-09-09T10:46:12;3.75;;;1.02;;
30149;SDS011;16962;48.646;9.026;2022-09-09T10:55:44;5.90;;;0.70;;
30149;SDS011;16962;48.646;9.026;2022-09-09T10:58:55;4.82;;;0.80;;
30149;SDS011;16962;48.646;9.026;2022-09-09T11:08:34;2.22;;;0.90;;
30149;SDS011;16962;48.646;9.026;2022-09-09T11:18:01;8.13;;;0.80;;
30149;SDS011;16962;48.646;9.026;2022-09-09T11:20:56;3.88;;;0.80;;
30149;SDS011;16962;48.646;9.026;2022-09-09T11:23:56;3.67;;;0.85;;
30149;SDS011;16962;48.646;9.026;2022-09-09T11:30:20;3.40;;;0.75;;
30149;SDS011;16962;48.646;9.026;2022-09-09T11:43:14;0.80;;;0.40;;
30149;SDS011;16962;48.646;9.026;2022-09-09T11:46:19;0.82;;;0.40;;
30149;SDS011;16962;48.646;9.026;2022-09-09T11:53:05;0.50;;;0.35;;
30149;SDS011;16962;48.646;9.026;2022-09-09T11:56:05;0.38;;;0.38;;
30149;SDS011;16962;48.646;9.026;2022-09-09T11:59:02;0.80;;;0.30;;
30149;SDS011;16962;48.646;9.026;2022-09-09T12:04:49;1.58;;;0.35;;
30149;SDS011;16962;48.646;9.026;2022-09-09T12:07:58;1.30;;;0.40;;
30149;SDS011;16962;48.646;9.026;2022-09-09T12:10:56;1.23;;;0.35;;
30149;SDS011;16962;48.646;9.026;2022-09-09T12:13:56;1.27;;;0.30;;
30149;SDS011;16962;48.646;9.026;2022-09-09T12:16:52;1.98;;;0.40;;
30149;SDS011;16962;48.646;9.026;2022-09-09T12:19:39;1.95;;;0.40;;
30149;SDS011;16962;48.646;9.026;2022-09-09T12:22:31;1.60;;;0.60;;
30149;SDS011;16962;48.646;9.026;2022-09-09T12:28:50;3.50;;;0.73;;
30149;SDS011;16962;48.646;9.026;2022-09-09T12:31:42;2.53;;;0.43;;
30149;SDS011;16962;48.646;9.026;2022-09-09T12:34:58;2.58;;;0.73;;
30149;SDS011;16962;48.646;9.026;2022-09-09T12:37:51;5.65;;;1.20;;
30149;SDS011;16962;48.646;9.026;2022-09-09T12:40:53;3.70;;;0.68;;
30149;SDS011;16962;48.646;9.026;2022-09-09T12:43:43;5.57;;;0.82;;
30149;SDS011;16962;48.646;9.026;2022-09-09T12:49:35;2.77;;;0.67;;
30149;SDS011;16962;48.646;9.026;2022-09-09T12:52:32;4.88;;;0.90;;
30149;SDS011;16962;48.646;9.026;2022-09-09T12:55:30;4.00;;;0.80;;
30149;SDS011;16962;48.646;9.026;2022-09-09T12:58:22;2.95;;;0.70;;
30149;SDS011;16962;48.646;9.026;2022-09-09T13:01:17;5.57;;;1.00;;
30149;SDS011;16962;48.646;9.026;2022-09-09T13:04:19;5.20;;;0.60;;
30149;SDS011;16962;48.646;9.026;2022-09-09T13:07:08;3.63;;;0.63;;
30149;SDS011;16962;48.646;9.026;2022-09-09T13:09:56;2.60;;;0.70;;
30149;SDS011;16962;48.646;9.026;2022-09-09T13:12:45;1.40;;;0.50;;
30149;SDS011;16962;48.646;9.026;2022-09-09T13:15:47;2.35;;;0.63;;
30149;SDS011;16962;48.646;9.026;2022-09-09T13:19:37;2.65;;;0.60;;
30149;SDS011;16962;48.646;9.026;2022-09-09T13:22:36;2.75;;;0.70;;
30149;SDS011;16962;48.646;9.026;2022-09-09T13:25:26;2.63;;;0.57;;
30149;SDS011;16962;48.646;9.026;2022-09-09T13:28:20;2.70;;;0.60;;
30149;SDS011;16962;48.646;9.026;2022-09-09T13:34:50;5.35;;;0.77;;
30149;SDS011;16962;48.646;9.026;2022-09-09T13:37:55;3.35;;;0.73;;
30149;SDS011;16962;48.646;9.026;2022-09-09T13:43:57;2.20;;;0.70;;
30149;SDS011;16962;48.646;9.026;2022-09-09T13:46:46;2.38;;;0.75;;
30149;SDS011;16962;48.646;9.026;2022-09-09T13:49:46;2.97;;;0.70;;
30149;SDS011;16962;48.646;9.026;2022-09-09T13:52:33;2.22;;;0.60;;
30149;SDS011;16962;48.646;9.026;2022-09-09T13:55:23;4.18;;;0.70;;
30149;SDS011;16962;48.646;9.026;2022-09-09T13:58:17;2.00;;;0.57;;
30149;SDS011;16962;48.646;9.026;2022-09-09T14:01:12;5.00;;;0.93;;
30149;SDS011;16962;48.646;9.026;2022-09-09T14:04:00;3.83;;;0.30;;
30149;SDS011;16962;48.646;9.026;2022-09-09T14:06:49;2.58;;;0.45;;
30149;SDS011;16962;48.646;9.026;2022-09-09T14:09:37;2.13;;;0.57;;
30149;SDS011;16962;48.646;9.026;2022-09-09T14:12:34;4.50;;;0.57;;
30149;SDS011;16962;48.646;9.026;2022-09-09T14:15:23;1.95;;;0.40;;
30149;SDS011;16962;48.646;9.026;2022-09-09T14:18:12;1.63;;;0.50;;
30149;SDS011;16962;48.646;9.026;2022-09-09T14:21:02;2.25;;;0.50;;
30149;SDS011;16962;48.646;9.026;2022-09-09T14:23:50;2.90;;;0.52;;
30149;SDS011;16962;48.646;9.026;2022-09-09T14:26:39;3.17;;;0.60;;
30149;SDS011;16962;48.646;9.026;2022-09-09T14:29:28;3.22;;;0.63;;
30149;SDS011;16962;48.646;9.026;2022-09-09T14:32:15;6.70;;;0.50;;
30149;SDS011;16962;48.646;9.026;2022-09-09T14:35:07;1.73;;;0.57;;
30149;SDS011;16962;48.646;9.026;2022-09-09T14:37:57;4.88;;;1.10;;
30149;SDS011;16962;48.646;9.026;2022-09-09T14:40:53;2.25;;;0.45;;
30149;SDS011;16962;48.646;9.026;2022-09-09T14:43:41;3.40;;;0.40;;
30149;SDS011;16962;48.646;9.026;2022-09-09T14:46:33;0.80;;;0.45;;
30149;SDS011;16962;48.646;9.026;2022-09-09T14:49:22;3.42;;;0.65;;
30149;SDS011;16962;48.646;9.026;2022-09-09T14:52:10;1.40;;;0.40;;
30149;SDS011;16962;48.646;9.026;2022-09-09T14:55:00;1.63;;;0.57;;
30149;SDS011;16962;48.646;9.026;2022-09-09T14:57:49;1.48;;;0.75;;
30149;SDS011;16962;48.646;9.026;2022-09-09T15:00:44;1.77;;;0.65;;
30149;SDS011;16962;48.646;9.026;2022-09-09T15:03:37;4.93;;;0.90;;
30149;SDS011;16962;48.646;9.026;2022-09-09T15:06:29;2.65;;;0.40;;
30149;SDS011;16962;48.646;9.026;2022-09-09T15:09:19;6.32;;;0.80;;
30149;SDS011;16962;48.646;9.026;2022-09-09T15:12:07;1.50;;;0.57;;
30149;SDS011;16962;48.646;9.026;2022-09-09T15:14:55;5.68;;;0.68;;
30149;SDS011;16962;48.646;9.026;2022-09-09T15:17:44;3.05;;;0.60;;
30149;SDS011;16962;48.646;9.026;2022-09-09T15:20:34;2.40;;;0.80;;
30149;SDS011;16962;48.646;9.026;2022-09-09T15:23:25;2.47;;;0.60;;
30149;SDS011;16962;48.646;9.026;2022-09-09T15:26:18;2.40;;;0.70;;
30149;SDS011;16962;48.646;9.026;2022-09-09T15:29:11;7.32;;;0.70;;
30149;SDS011;16962;48.646;9.026;2022-09-09T15:32:01;5.45;;;0.90;;
30149;SDS011;16962;48.646;9.026;2022-09-09T15:34:49;1.92;;;0.43;;
30149;SDS011;16962;48.646;9.026;2022-09-09T15:37:43;3.30;;;1.15;;
30149;SDS011;16962;48.646;9.026;2022-09-09T15:40:32;2.72;;;0.80;;
30149;SDS011;16962;48.646;9.026;2022-09-09T15:43:25;1.85;;;0.60;;
30149;SDS011;16962;48.646;9.026;2022-09-09T15:49:24;2.40;;;0.70;;
30149;SDS011;16962;48.646;9.026;2022-09-09T15:52:15;7.97;;;1.00;;
30149;SDS011;16962;48.646;9.026;2022-09-09T15:55:02;1.15;;;0.47;;
30149;SDS011;16962;48.646;9.026;2022-09-09T15:57:52;3.17;;;0.70;;
30149;SDS011;16962;48.646;9.026;2022-09-09T16:00:44;3.13;;;1.00;;
30149;SDS011;16962;48.646;9.026;2022-09-09T16:03:39;1.75;;;0.80;;
30149;SDS011;16962;48.646;9.026;2022-09-09T16:06:33;2.65;;;0.50;;
30149;SDS011;16962;48.646;9.026;2022-09-09T16:09:20;1.80;;;0.52;;
30149;SDS011;16962;48.646;9.026;2022-09-09T16:12:14;2.92;;;1.05;;
30149;SDS011;16962;48.646;9.026;2022-09-09T16:15:02;2.33;;;0.90;;
30149;SDS011;16962;48.646;9.026;2022-09-09T16:17:53;3.25;;;1.20;;
30149;SDS011;16962;48.646;9.026;2022-09-09T16:20:40;5.63;;;1.27;;
30149;SDS011;16962;48.646;9.026;2022-09-09T16:23:35;4.20;;;0.80;;
30149;SDS011;16962;48.646;9.026;2022-09-09T16:26:31;3.75;;;0.90;;
30149;SDS011;16962;48.646;9.026;2022-09-09T16:29:21;2.05;;;0.70;;
30149;SDS011;16962;48.646;9.026;2022-09-09T16:32:09;2.92;;;0.50;;
30149;SDS011;16962;48.646;9.026;2022-09-09T16:34:57;2.13;;;0.55;;
30149;SDS011;16962;48.646;9.026;2022-09-09T16:37:44;5.03;;;0.63;;
30149;SDS011;16962;48.646;9.026;2022-09-09T16:40:34;0.93;;;0.50;;
30149;SDS011;16962;48.646;9.026;2022-09-09T16:43:25;2.33;;;0.47;;
30149;SDS011;16962;48.646;9.026;2022-09-09T16:46:14;1.52;;;0.47;;
30149;SDS011;16962;48.646;9.026;2022-09-09T16:49:03;1.65;;;0.50;;
30149;SDS011;16962;48.646;9.026;2022-09-09T16:51:57;3.42;;;1.00;;
30149;SDS011;16962;48.646;9.026;2022-09-09T16:54:45;2.63;;;0.65;;
30149;SDS011;16962;48.646;9.026;2022-09-09T16:57:32;4.22;;;0.57;;
30149;SDS011;16962;48.646;9.026;2022-09-09T17:00:19;2.75;;;1.23;;
30149;SDS011;16962;48.646;9.026;2022-09-09T17:03:10;5.97;;;1.02;;
30149;SDS011;16962;48.646;9.026;2022-09-09T17:06:06;1.65;;;0.70;;
30149;SDS011;16962;48.646;9.026;2022-09-09T17:09:00;5.70;;;0.73;;
30149;SDS011;16962;48.646;9.026;2022-09-09T17:11:49;1.42;;;0.80;;
30149;SDS011;16962;48.646;9.026;2022-09-09T17:14:41;2.67;;;1.00;;
30149;SDS011;16962;48.646;9.026;2022-09-09T17:17:32;1.52;;;0.90;;
30149;SDS011;16962;48.646;9.026;2022-09-09T17:20:21;2.92;;;1.65;;
30149;SDS011;16962;48.646;9.026;2022-09-09T17:23:11;2.40;;;0.80;;
30149;SDS011;16962;48.646;9.026;2022-09-09T17:26:01;1.80;;;1.00;;
30149;SDS011;16962;48.646;9.026;2022-09-09T17:28:51;2.10;;;0.95;;
30149;SDS011;16962;48.646;9.026;2022-09-09T17:31:45;3.17;;;1.08;;
30149;SDS011;16962;48.646;9.026;2022-09-09T17:34:40;4.82;;;1.42;;
30149;SDS011;16962;48.646;9.026;2022-09-09T17:37:27;2.63;;;1.48;;
30149;SDS011;16962;48.646;9.026;2022-09-09T17:40:15;3.33;;;1.70;;
30149;SDS011;16962;48.646;9.026;2022-09-09T17:43:32;5.60;;;1.52;;
30149;SDS011;16962;48.646;9.026;2022-09-09T17:46:28;6.07;;;1.55;;
30149;SDS011;16962;48.646;9.026;2022-09-09T17:49:18;5.93;;;2.30;;
30149;SDS011;16962;48.646;9.026;2022-09-09T17:52:08;6.57;;;3.15;;
30149;SDS011;16962;48.646;9.026;2022-09-09T17:55:04;3.97;;;1.63;;
30149;SDS011;16962;48.646;9.026;2022-09-09T17:57:55;3.33;;;1.30;;
30149;SDS011;16962;48.646;9.026;2022-09-09T18:00:42;1.85;;;1.00;;
30149;SDS011;16962;48.646;9.026;2022-09-09T18:03:33;4.97;;;1.35;;
30149;SDS011;16962;48.646;9.026;2022-09-09T18:06:32;3.22;;;1.05;;
30149;SDS011;16962;48.646;9.026;2022-09-09T18:09:22;3.85;;;1.10;;
30149;SDS011;16962;48.646;9.026;2022-09-09T18:12:14;3.70;;;0.80;;
30149;SDS011;16962;48.646;9.026;2022-09-09T18:15:02;2.65;;;0.80;;
30149;SDS011;16962;48.646;9.026;2022-09-09T18:17:51;3.05;;;0.82;;
30149;SDS011;16962;48.646;9.026;2022-09-09T18:20:40;5.32;;;1.40;;
30149;SDS011;16962;48.646;9.026;2022-09-09T18:23:31;3.65;;;1.77;;
30149;SDS011;16962;48.646;9.026;2022-09-09T18:26:26;4.40;;;1.35;;
30149;SDS011;16962;48.646;9.026;2022-09-09T18:29:15;5.25;;;0.93;;
30149;SDS011;16962;48.646;9.026;2022-09-09T18:32:05;4.75;;;1.10;;
30149;SDS011;16962;48.646;9.026;2022-09-09T18:34:53;1.85;;;0.80;;
30149;SDS011;16962;48.646;9.026;2022-09-09T18:37:47;3.90;;;1.05;;
30149;SDS011;16962;48.646;9.026;2022-09-09T18:40:35;4.47;;;1.02;;
30149;SDS011;16962;48.646;9.026;2022-09-09T18:43:26;4.50;;;1.00;;
30149;SDS011;16962;48.646;9.026;2022-09-09T18:46:14;6.15;;;1.35;;
30149;SDS011;16962;48.646;9.026;2022-09-09T18:49:03;3.67;;;1.35;;
30149;SDS011;16962;48.646;9.026;2022-09-09T18:51:51;6.88;;;1.70;;
30149;SDS011;16962;48.646;9.026;2022-09-09T18:54:42;3.70;;;1.40;;
30149;SDS011;16962;48.646;9.026;2022-09-09T18:57:33;2.45;;;1.25;;
30149;SDS011;16962;48.646;9.026;2022-09-09T19:00:22;3.78;;;0.80;;
30149;SDS011;16962;48.646;9.026;2022-09-09T19:03:12;3.05;;;0.80;;
30149;SDS011;16962;48.646;9.026;2022-09-09T19:06:07;6.20;;;1.27;;
30149;SDS011;16962;48.646;9.026;2022-09-09T19:09:02;4.57;;;0.95;;
30149;SDS011;16962;48.646;9.026;2022-09-09T19:11:55;2.35;;;0.80;;
30149;SDS011;16962;48.646;9.026;2022-09-09T19:15:06;4.50;;;1.90;;
30149;SDS011;16962;48.646;9.026;2022-09-09T19:18:37;7.32;;;2.72;;
30149;SDS011;16962;48.646;9.026;2022-09-09T19:22:13;5.20;;;2.20;;
30149;SDS011;16962;48.646;9.026;2022-09-09T19:25:47;2.25;;;1.05;;
30149;SDS011;16962;48.646;9.026;2022-09-09T19:33:11;7.15;;;2.22;;
30149;SDS011;16962;48.646;9.026;2022-09-09T19:36:16;4.32;;;1.55;;
30149;SDS011;16962;48.646;9.026;2022-09-09T19:39:21;5.53;;;1.33;;
30149;SDS011;16962;48.646;9.026;2022-09-09T19:42:24;4.20;;;1.48;;
30149;SDS011;16962;48.646;9.026;2022-09-09T19:45:37;2.88;;;1.15;;
30149;SDS011;16962;48.646;9.026;2022-09-09T19:48:30;2.37;;;1.20;;
30149;SDS011;16962;48.646;9.026;2022-09-09T19:51:24;5.10;;;1.00;;
30149;SDS011;16962;48.646;9.026;2022-09-09T19:54:12;2.63;;;0.80;;
30149;SDS011;16962;48.646;9.026;2022-09-09T19:56:59;4.28;;;1.55;;
30149;SDS011;16962;48.646;9.026;2022-09-09T19:59:47;2.80;;;1.00;;
30149;SDS011;16962;48.646;9.026;2022-09-09T20:02:35;2.45;;;0.93;;
30149;SDS011;16962;48.646;9.026;2022-09-09T20:05:32;4.40;;;1.38;;
30149;SDS011;16962;48.646;9.026;2022-09-09T20:08:19;4.53;;;1.40;;
30149;SDS011;16962;48.646;9.026;2022-09-09T20:11:09;11.27;;;1.88;;
30149;SDS011;16962;48.646;9.026;2022-09-09T20:17:25;3.13;;;0.70;;
30149;SDS011;16962;48.646;9.026;2022-09-09T20:20:18;4.88;;;1.10;;
30149;SDS011;16962;48.646;9.026;2022-09-09T20:23:06;2.97;;;1.05;;
30149;SDS011;16962;48.646;9.026;2022-09-09T20:25:54;2.25;;;1.00;;
30149;SDS011;16962;48.646;9.026;2022-09-09T20:28:49;2.17;;;0.85;;
30149;SDS011;16962;48.646;9.026;2022-09-09T20:31:38;3.97;;;1.23;;
30149;SDS011;16962;48.646;9.026;2022-09-09T20:34:26;4.53;;;2.05;;
30149;SDS011;16962;48.646;9.026;2022-09-09T20:37:16;5.38;;;1.10;;
30149;SDS011;16962;48.646;9.026;2022-09-09T20:40:14;3.92;;;1.02;;
30149;SDS011;16962;48.646;9.026;2022-09-09T20:43:15;3.55;;;0.90;;
30149;SDS011;16962;48.646;9.026;2022-09-09T20:49:27;7.90;;;1.35;;
30149;SDS011;16962;48.646;9.026;2022-09-09T20:52:29;4.45;;;1.10;;
30149;SDS011;16962;48.646;9.026;2022-09-09T20:58:30;6.13;;;1.17;;
30149;SDS011;16962;48.646;9.026;2022-09-09T21:01:29;3.13;;;1.08;;
30149;SDS011;16962;48.646;9.026;2022-09-09T21:04:17;4.32;;;0.90;;
30149;SDS011;16962;48.646;9.026;2022-09-09T21:07:05;2.88;;;1.25;;
30149;SDS011;16962;48.646;9.026;2022-09-09T21:09:54;4.00;;;1.00;;
30149;SDS011;16962;48.646;9.026;2022-09-09T21:12:43;4.45;;;1.20;;
30149;SDS011;16962;48.646;9.026;2022-09-09T21:15:30;4.20;;;1.10;;
30149;SDS011;16962;48.646;9.026;2022-09-09T21:18:19;1.88;;;0.80;;
30149;SDS011;16962;48.646;9.026;2022-09-09T21:21:08;2.13;;;0.98;;
30149;SDS011;16962;48.646;9.026;2022-09-09T21:23:56;2.88;;;0.93;;
30149;SDS011;16962;48.646;9.026;2022-09-09T21:26:46;2.28;;;1.05;;
30149;SDS011;16962;48.646;9.026;2022-09-09T21:29:35;5.88;;;1.48;;
30149;SDS011;16962;48.646;9.026;2022-09-09T21:32:22;3.17;;;1.77;;
30149;SDS011;16962;48.646;9.026;2022-09-09T21:35:09;4.40;;;1.10;;
30149;SDS011;16962;48.646;9.026;2022-09-09T21:37:58;3.53;;;0.90;;
30149;SDS011;16962;48.646;9.026;2022-09-09T21:40:45;6.30;;;1.55;;
30149;SDS011;16962;48.646;9.026;2022-09-09T21:43:40;4.10;;;1.30;;
30149;SDS011;16962;48.646;9.026;2022-09-09T21:46:29;4.18;;;1.17;;
30149;SDS011;16962;48.646;9.026;2022-09-09T21:49:18;3.97;;;1.05;;
30149;SDS011;16962;48.646;9.026;2022-09-09T21:52:11;3.20;;;1.65;;
30149;SDS011;16962;48.646;9.026;2022-09-09T21:54:58;5.35;;;1.38;;
30149;SDS011;16962;48.646;9.026;2022-09-09T21:57:51;5.07;;;1.30;;
30149;SDS011;16962;48.646;9.026;2022-09-09T22:00:39;5.68;;;1.48;;
30149;SDS011;16962;48.646;9.026;2022-09-09T22:03:30;3.92;;;1.25;;
30149;SDS011;16962;48.646;9.026;2022-09-09T22:06:17;3.05;;;1.15;;
30149;SDS011;16962;48.646;9.026;2022-09-09T22:09:07;1.98;;;1.15;;
30149;SDS011;16962;48.646;9.026;2022-09-09T22:11:57;3.78;;;1.10;;
30149;SDS011;16962;48.646;9.026;2022-09-09T22:14:44;4.43;;;1.23;;
30149;SDS011;16962;48.646;9.026;2022-09-09T22:17:34;3.92;;;1.50;;
30149;SDS011;16962;48.646;9.026;2022-09-09T22:20:21;5.22;;;1.38;;
30149;SDS011;16962;48.646;9.026;2022-09-09T22:23:09;3.75;;;1.02;;
30149;SDS011;16962;48.646;9.026;2022-09-09T22:25:57;3.13;;;1.27;;
30149;SDS011;16962;48.646;9.026;2022-09-09T22:28:46;6.32;;;1.42;;
30149;SDS011;16962;48.646;9.026;2022-09-09T22:31:34;5.28;;;1.23;;
30149;SDS011;16962;48.646;9.026;2022-09-09T22:34:21;3.47;;;1.40;;
30149;SDS011;16962;48.646;9.026;2022-09-09T22:37:09;4.75;;;1.48;;
30149;SDS011;16962;48.646;9.026;2022-09-09T22:39:56;7.70;;;1.58;;
30149;SDS011;16962;48.646;9.026;2022-09-09T22:42:44;4.03;;;1.15;;
30149;SDS011;16962;48.646;9.026;2022-09-09T22:45:38;5.50;;;1.33;;
30149;SDS011;16962;48.646;9.026;2022-09-09T22:48:25;5.60;;;1.58;;
30149;SDS011;16962;48.646;9.026;2022-09-09T22:51:14;4.65;;;0.93;;
30149;SDS011;16962;48.646;9.026;2022-09-09T22:54:05;3.63;;;1.08;;
30149;SDS011;16962;48.646;9.026;2022-09-09T22:56:53;5.22;;;1.20;;
30149;SDS011;16962;48.646;9.026;2022-09-09T22:59:45;6.43;;;1.15;;
30149;SDS011;16962;48.646;9.026;2022-09-09T23:02:32;4.55;;;0.93;;
30149;SDS011;16962;48.646;9.026;2022-09-09T23:05:26;3.03;;;1.10;;
30149;SDS011;16962;48.646;9.026;2022-09-09T23:08:28;5.28;;;1.50;;
30149;SDS011;16962;48.646;9.026;2022-09-09T23:11:21;7.43;;;1.80;;
30149;SDS011;16962;48.646;9.026;2022-09-09T23:14:11;5.90;;;1.80;;
30149;SDS011;16962;48.646;9.026;2022-09-09T23:17:01;12.65;;;1.88;;
30149;SDS011;16962;48.646;9.026;2022-09-09T23:19:51;4.50;;;1.80;;
30149;SDS011;16962;48.646;9.026;2022-09-09T23:22:39;5.95;;;1.90;;
30149;SDS011;16962;48.646;9.026;2022-09-09T23:25:29;6.30;;;1.90;;
30149;SDS011;16962;48.646;9.026;2022-09-09T23:28:16;5.65;;;1.80;;
30149;SDS011;16962;48.646;9.026;2022-09-09T23:31:16;10.95;;;1.85;;
30149;SDS011;16962;48.646;9.026;2022-09-09T23:34:08;2.07;;;1.33;;
30149;SDS011;16962;48.646;9.026;2022-09-09T23:36:58;8.95;;;1.65;;
30149;SDS011;16962;48.646;9.026;2022-09-09T23:39:45;4.00;;;1.30;;
30149;SDS011;16962;48.646;9.026;2022-09-09T23:42:33;6.53;;;1.40;;
30149;SDS011;16962;48.646;9.026;2022-09-09T23:45:23;2.25;;;1.20;;
30149;SDS011;16962;48.646;9.026;2022-09-09T23:48:10;3.35;;;1.20;;
30149;SDS011;16962;48.646;9.026;2022-09-09T23:50:58;2.55;;;1.20;;
30149;SDS011;16962;48.646;9.026;2022-09-09T23:53:48;4.90;;;1.42;;
30149;SDS011;16962;48.646;9.026;2022-09-09T23:56:39;4.47;;;1.35;;
30149;SDS011;16962;48.646;9.026;2022-09-09T23:59:30;3.28;;;1.00;;
